Time;durP1;ratioP1;P1;durP2;ratioP2;P2;SDS_P1;SDS_P2;PMS_P1;PMS_P2;Temp;Humidity;BMP_temperature;BMP_pressure;BME280_temperature;BME280_humidity;BME280_pressure;Samples;Min_cycle;Max_cycle;Signal;HPM_P1;HPM_P2
2021/09/04 00:00:51;;;;;;;21.90;11.60;;;18.10;99.90;;;;;;5031655;28;20068;-86
2021/09/04 00:03:17;;;;;;;18.80;11.23;;;18.10;99.90;;;;;;5033229;28;20021;-86
2021/09/04 00:05:43;;;;;;;20.73;11.55;;;18.00;99.90;;;;;;5033531;28;20105;-86
2021/09/04 00:08:08;;;;;;;26.20;12.45;;;18.00;99.90;;;;;;5032229;28;20025;-86
2021/09/04 00:10:34;;;;;;;23.38;12.88;;;18.00;99.90;;;;;;5031576;28;20556;-86
2021/09/04 00:13:00;;;;;;;24.25;12.43;;;18.00;99.90;;;;;;5031835;28;20025;-86
2021/09/04 00:15:26;;;;;;;20.63;11.95;;;18.00;99.90;;;;;;5048562;28;20394;-86
2021/09/04 00:17:56;;;;;;;26.35;13.90;;;18.00;99.90;;;;;;5031886;28;20394;-86
2021/09/04 00:20:22;;;;;;;19.55;12.07;;;18.00;99.90;;;;;;5031421;28;20109;-86
2021/09/04 00:22:48;;;;;;;25.75;14.02;;;17.90;99.90;;;;;;5031896;28;20489;-86
2021/09/04 00:25:14;;;;;;;23.45;13.43;;;17.90;99.90;;;;;;5031792;28;20028;-86
2021/09/04 00:27:40;;;;;;;24.42;13.77;;;17.90;99.90;;;;;;5032969;28;20017;-86
2021/09/04 00:30:06;;;;;;;24.08;13.25;;;17.90;99.90;;;;;;5031233;28;20039;-86
2021/09/04 00:32:32;;;;;;;23.50;13.50;;;17.90;99.90;;;;;;5032820;28;20056;-86
2021/09/04 00:34:58;;;;;;;23.70;13.65;;;17.90;99.90;;;;;;5031654;28;20029;-86
2021/09/04 00:37:23;;;;;;;24.33;13.80;;;17.80;99.90;;;;;;5031424;28;20026;-86
2021/09/04 00:39:49;;;;;;;24.73;14.68;;;17.80;99.90;;;;;;5047501;28;20072;-86
2021/09/04 00:42:18;;;;;;;23.33;13.20;;;17.80;99.90;;;;;;5047991;28;20021;-86
2021/09/04 00:44:43;;;;;;;27.92;15.05;;;17.80;99.90;;;;;;5032753;28;20076;-86
2021/09/04 00:47:09;;;;;;;23.65;13.02;;;17.80;99.90;;;;;;5031333;28;20037;-86
2021/09/04 00:49:35;;;;;;;29.15;14.48;;;17.70;99.90;;;;;;5031971;28;20028;-86
2021/09/04 00:52:02;;;;;;;27.45;15.10;;;17.70;99.90;;;;;;5047599;28;20026;-86
2021/09/04 00:54:28;;;;;;;22.80;13.52;;;17.70;99.90;;;;;;5031354;28;20025;-86
2021/09/04 00:56:54;;;;;;;21.77;13.52;;;17.70;99.90;;;;;;5031252;28;20552;-86
2021/09/04 00:59:19;;;;;;;25.00;14.48;;;17.60;99.90;;;;;;5030619;28;20044;-86
2021/09/04 01:01:45;;;;;;;24.65;13.75;;;17.60;99.90;;;;;;5031059;28;20021;-86
2021/09/04 01:04:12;;;;;;;24.23;13.13;;;17.60;99.90;;;;;;5031046;28;20029;-86
2021/09/04 01:06:38;;;;;;;25.13;14.60;;;17.60;99.90;;;;;;5031212;28;20372;-86
2021/09/04 01:09:05;;;;;;;27.58;14.50;;;17.60;99.90;;;;;;5030369;28;20056;-86
2021/09/04 01:11:32;;;;;;;23.23;13.52;;;17.60;99.90;;;;;;5030896;28;20057;-86
2021/09/04 01:13:57;;;;;;;24.58;14.35;;;17.50;99.90;;;;;;5031103;28;20021;-86
2021/09/04 01:16:33;;;;;;;27.15;15.93;;;17.50;99.90;;;;;;5030887;28;20493;-86
2021/09/04 01:18:59;;;;;;;26.45;15.13;;;17.50;99.90;;;;;;5031652;28;20087;-86
2021/09/04 01:21:24;;;;;;;28.35;15.07;;;17.50;99.90;;;;;;5032107;28;20021;-86
2021/09/04 01:23:50;;;;;;;25.98;13.57;;;17.50;99.90;;;;;;5032069;28;20108;-86
2021/09/04 01:26:16;;;;;;;29.73;15.80;;;17.40;99.90;;;;;;5032513;28;20053;-86
2021/09/04 01:28:41;;;;;;;26.88;14.57;;;17.40;99.90;;;;;;5030736;28;20565;-86
2021/09/04 01:31:07;;;;;;;27.33;14.57;;;17.40;99.90;;;;;;5031680;28;20025;-86
2021/09/04 01:33:42;;;;;;;25.90;14.60;;;17.30;99.90;;;;;;5031956;28;20082;-86
2021/09/04 01:36:07;;;;;;;30.73;15.98;;;17.30;99.90;;;;;;5047334;28;20437;-86
2021/09/04 01:38:33;;;;;;;28.38;16.42;;;17.30;99.90;;;;;;5031911;28;20030;-86
2021/09/04 01:40:59;;;;;;;30.50;17.02;;;17.30;99.90;;;;;;5046691;28;20474;-86
2021/09/04 01:43:24;;;;;;;26.95;14.68;;;17.20;99.90;;;;;;5031600;28;20057;-86
2021/09/04 01:45:50;;;;;;;27.88;15.73;;;17.20;99.90;;;;;;5030900;28;20122;-86
2021/09/04 01:48:15;;;;;;;31.63;15.93;;;17.20;99.90;;;;;;5051483;28;20488;-86
2021/09/04 01:50:41;;;;;;;32.15;18.15;;;17.10;99.90;;;;;;5034477;28;20044;-86
2021/09/04 01:53:07;;;;;;;33.03;18.50;;;17.10;99.90;;;;;;5034637;28;20043;-86
2021/09/04 01:55:32;;;;;;;31.75;18.00;;;17.00;99.90;;;;;;5035104;28;20060;-86
2021/09/04 01:57:58;;;;;;;28.67;16.08;;;17.00;99.90;;;;;;5034948;28;20076;-86
2021/09/04 02:00:24;;;;;;;30.60;17.92;;;17.00;99.90;;;;;;5038958;28;20029;-85
2021/09/04 02:02:49;;;;;;;30.67;17.60;;;16.90;99.90;;;;;;5055452;28;20025;-86
2021/09/04 02:05:15;;;;;;;28.60;17.08;;;16.90;99.90;;;;;;5037469;28;20025;-85
2021/09/04 02:07:40;;;;;;;33.83;18.05;;;16.90;99.90;;;;;;5034602;28;20029;-85
2021/09/04 02:10:07;;;;;;;31.13;17.20;;;16.90;99.90;;;;;;5032865;28;20021;-85
2021/09/04 02:12:33;;;;;;;29.50;17.67;;;16.90;99.90;;;;;;5033443;28;20389;-86
2021/09/04 02:14:59;;;;;;;32.63;17.75;;;16.90;99.90;;;;;;5034310;28;20029;-86
2021/09/04 02:17:24;;;;;;;28.95;17.80;;;16.90;99.90;;;;;;5050974;28;20047;-86
2021/09/04 02:19:50;;;;;;;32.08;17.92;;;16.90;99.90;;;;;;5033683;28;20523;-86
2021/09/04 02:22:16;;;;;;;27.80;17.65;;;16.90;99.90;;;;;;5034061;28;20493;-86
2021/09/04 02:24:41;;;;;;;33.10;19.02;;;16.90;99.90;;;;;;5035518;28;20095;-86
2021/09/04 02:27:07;;;;;;;36.10;19.60;;;16.90;99.90;;;;;;5034085;28;20087;-86
2021/09/04 02:29:33;;;;;;;36.20;20.70;;;16.90;99.90;;;;;;5033569;28;20075;-85
2021/09/04 02:31:59;;;;;;;31.45;19.88;;;16.90;99.90;;;;;;5033624;28;20503;-86
2021/09/04 02:34:24;;;;;;;32.35;19.15;;;16.90;99.90;;;;;;5033852;28;20026;-86
2021/09/04 02:36:50;;;;;;;32.85;19.98;;;16.90;99.90;;;;;;5035248;28;20112;-86
2021/09/04 02:39:16;;;;;;;31.33;18.80;;;16.90;99.90;;;;;;5034415;28;20031;-86
2021/09/04 02:41:42;;;;;;;32.55;19.83;;;16.80;99.90;;;;;;5034940;28;20164;-86
2021/09/04 02:44:08;;;;;;;35.30;20.10;;;16.80;99.90;;;;;;5050252;28;20032;-86
2021/09/04 02:46:34;;;;;;;37.20;21.20;;;16.80;99.90;;;;;;5033723;28;20033;-86
2021/09/04 02:49:00;;;;;;;33.42;20.33;;;16.80;99.90;;;;;;5034466;28;20025;-86
2021/09/04 02:51:25;;;;;;;33.15;19.00;;;16.80;99.90;;;;;;5033519;28;20030;-86
2021/09/04 02:53:51;;;;;;;32.72;20.25;;;16.80;99.90;;;;;;5033343;28;20076;-86
2021/09/04 02:56:20;;;;;;;39.67;21.90;;;16.70;99.90;;;;;;5034526;28;20049;-86
2021/09/04 02:58:45;;;;;;;36.33;19.90;;;16.70;99.90;;;;;;5033426;28;20022;-86
2021/09/04 03:01:11;;;;;;;37.97;21.33;;;16.70;99.90;;;;;;5032924;28;20025;-86
2021/09/04 03:03:37;;;;;;;34.78;19.98;;;16.60;99.90;;;;;;5034671;28;20028;-86
2021/09/04 03:06:03;;;;;;;34.47;20.25;;;16.60;99.90;;;;;;5033446;28;20025;-86
2021/09/04 03:08:29;;;;;;;41.15;21.88;;;16.60;99.90;;;;;;5033115;28;20501;-86
2021/09/04 03:10:55;;;;;;;38.70;22.38;;;16.60;99.90;;;;;;5033997;28;20064;-86
2021/09/04 03:13:21;;;;;;;35.67;20.23;;;16.60;99.90;;;;;;5033205;28;20025;-86
2021/09/04 03:15:47;;;;;;;36.00;20.98;;;16.60;99.90;;;;;;5033158;28;20017;-86
2021/09/04 03:18:13;;;;;;;35.00;21.20;;;16.60;99.90;;;;;;5034341;28;20017;-86
2021/09/04 03:20:39;;;;;;;38.85;21.90;;;16.60;99.90;;;;;;5032544;28;20025;-86
2021/09/04 03:23:05;;;;;;;33.95;20.88;;;16.60;99.90;;;;;;5034252;28;20026;-86
2021/09/04 03:25:30;;;;;;;41.97;22.38;;;16.60;99.90;;;;;;5034325;28;20286;-85
2021/09/04 03:27:56;;;;;;;43.05;23.95;;;16.50;99.90;;;;;;5034288;28;20113;-86
2021/09/04 03:30:22;;;;;;;38.08;21.77;;;16.50;99.90;;;;;;5033604;28;20034;-86
2021/09/04 03:32:48;;;;;;;38.95;22.67;;;16.50;99.90;;;;;;5033997;28;20032;-86
2021/09/04 03:35:13;;;;;;;43.88;24.60;;;16.50;99.90;;;;;;5032768;28;20022;-86
2021/09/04 03:37:39;;;;;;;42.55;25.52;;;16.50;99.90;;;;;;5033927;28;20104;-86
2021/09/04 03:40:05;;;;;;;41.22;25.20;;;16.50;99.90;;;;;;5032250;28;20041;-86
2021/09/04 03:42:31;;;;;;;47.85;28.42;;;16.50;99.90;;;;;;5032502;28;20018;-85
2021/09/04 03:44:56;;;;;;;56.35;29.02;;;16.50;99.90;;;;;;5033879;28;20382;-86
2021/09/04 03:47:22;;;;;;;50.00;28.33;;;16.40;99.90;;;;;;5032824;28;20036;-86
2021/09/04 03:49:48;;;;;;;45.28;26.65;;;16.40;99.90;;;;;;5033649;28;20028;-85
2021/09/04 03:52:13;;;;;;;47.97;28.83;;;16.50;99.90;;;;;;5032354;28;20025;-85
2021/09/04 03:54:39;;;;;;;54.33;29.60;;;16.50;99.90;;;;;;5033727;28;20038;-86
2021/09/04 03:57:04;;;;;;;49.58;27.15;;;16.40;99.90;;;;;;5032369;28;20060;-85
2021/09/04 03:59:30;;;;;;;50.10;28.05;;;16.50;99.90;;;;;;5033178;28;20029;-86
2021/09/04 04:01:56;;;;;;;50.08;29.38;;;16.40;99.90;;;;;;5032178;28;20026;-86
2021/09/04 04:04:21;;;;;;;53.03;28.40;;;16.40;99.90;;;;;;5032313;28;20017;-86
2021/09/04 04:06:47;;;;;;;49.92;27.75;;;16.40;99.90;;;;;;5033387;28;20048;-86
2021/09/04 04:09:12;;;;;;;54.53;29.10;;;16.40;99.90;;;;;;5031090;28;20061;-86
2021/09/04 04:11:39;;;;;;;45.95;27.90;;;16.40;99.90;;;;;;5048671;28;20112;-86
2021/09/04 04:14:05;;;;;;;47.83;28.35;;;16.40;99.90;;;;;;5033327;28;20071;-85
2021/09/04 04:16:31;;;;;;;44.67;27.23;;;16.40;99.90;;;;;;5031985;28;20029;-86
2021/09/04 04:18:57;;;;;;;42.03;26.23;;;16.40;99.90;;;;;;5048016;28;20140;-85
2021/09/04 04:21:22;;;;;;;49.15;27.80;;;16.50;99.90;;;;;;5048352;28;20030;-86
2021/09/04 04:23:48;;;;;;;52.17;29.45;;;16.50;99.90;;;;;;5031836;28;20585;-86
2021/09/04 04:26:14;;;;;;;48.85;28.05;;;16.40;99.90;;;;;;5033226;28;20088;-86
2021/09/04 04:28:39;;;;;;;49.17;26.80;;;16.40;99.90;;;;;;5031857;28;20024;-86
2021/09/04 04:31:05;;;;;;;50.15;28.58;;;16.40;99.90;;;;;;5032352;28;20102;-86
2021/09/04 04:33:30;;;;;;;52.50;28.02;;;16.40;99.90;;;;;;5031645;28;20021;-85
2021/09/04 04:35:57;;;;;;;49.63;27.55;;;16.40;99.90;;;;;;5031661;28;20116;-86
2021/09/04 04:38:22;;;;;;;45.70;26.58;;;16.40;99.90;;;;;;5048021;28;20053;-86
2021/09/04 04:40:48;;;;;;;51.28;27.85;;;16.50;99.90;;;;;;5032206;28;20053;-86
2021/09/04 04:43:14;;;;;;;49.08;28.67;;;16.40;99.90;;;;;;5032587;28;20025;-86
2021/09/04 04:45:39;;;;;;;48.80;27.02;;;16.50;99.90;;;;;;5048056;28;20017;-86
2021/09/04 04:48:05;;;;;;;50.65;27.52;;;16.40;99.90;;;;;;5032688;28;20029;-85
2021/09/04 04:50:31;;;;;;;54.60;28.63;;;16.50;99.90;;;;;;5047379;28;20049;-86
2021/09/04 04:52:57;;;;;;;54.85;28.92;;;16.40;99.90;;;;;;5048462;28;20033;-86
2021/09/04 04:55:22;;;;;;;52.80;29.08;;;16.40;99.90;;;;;;5048139;28;20065;-86
2021/09/04 04:57:48;;;;;;;55.40;30.30;;;16.50;99.90;;;;;;5048178;28;20025;-86
2021/09/04 05:00:14;;;;;;;52.90;29.38;;;16.40;99.90;;;;;;5030832;28;20106;-86
2021/09/04 05:02:39;;;;;;;51.70;28.40;;;16.40;99.90;;;;;;5047849;28;20394;-86
2021/09/04 05:05:07;;;;;;;54.40;27.80;;;16.30;99.90;;;;;;5035554;28;20033;-86
2021/09/04 05:07:33;;;;;;;52.08;27.15;;;16.30;99.90;;;;;;5038231;28;20187;-85
2021/09/04 05:09:59;;;;;;;48.70;27.02;;;16.30;99.90;;;;;;5036180;28;20021;-85
2021/09/04 05:12:25;;;;;;;51.10;26.00;;;16.30;99.90;;;;;;5053413;28;20029;-85
2021/09/04 05:14:50;;;;;;;51.53;27.83;;;16.30;99.90;;;;;;5036868;28;20402;-85
2021/09/04 05:17:16;;;;;;;53.00;29.55;;;16.30;99.90;;;;;;5036475;28;20030;-85
2021/09/04 05:19:42;;;;;;;59.25;31.00;;;16.30;99.90;;;;;;5036403;28;20135;-86
2021/09/04 05:22:08;;;;;;;55.83;30.40;;;16.30;99.90;;;;;;5037637;28;20025;-85
2021/09/04 05:24:33;;;;;;;57.25;29.95;;;16.20;99.90;;;;;;5039151;28;20029;-85
2021/09/04 05:26:59;;;;;;;57.45;30.95;;;16.20;99.90;;;;;;5053987;28;20536;-85
2021/09/04 05:29:26;;;;;;;59.17;30.42;;;16.20;99.90;;;;;;5033612;28;20117;-86
2021/09/04 05:31:52;;;;;;;56.95;30.52;;;16.20;99.90;;;;;;5047630;28;20047;-86
2021/09/04 05:34:18;;;;;;;69.07;34.80;;;16.10;99.90;;;;;;5032427;28;20036;-85
2021/09/04 05:36:44;;;;;;;61.33;31.58;;;16.20;99.90;;;;;;5032292;28;20113;-86
2021/09/04 05:39:09;;;;;;;63.58;32.33;;;16.20;99.90;;;;;;5030537;28;20033;-85
2021/09/04 05:41:35;;;;;;;64.72;33.10;;;16.20;99.90;;;;;;5030791;28;20059;-86
2021/09/04 05:44:01;;;;;;;62.83;33.67;;;16.10;99.90;;;;;;5032576;28;20049;-86
2021/09/04 05:46:27;;;;;;;55.60;30.25;;;16.10;99.90;;;;;;5031135;28;20036;-86
2021/09/04 05:48:52;;;;;;;56.58;30.23;;;16.10;99.90;;;;;;5030883;28;20026;-85
2021/09/04 05:51:18;;;;;;;55.53;30.92;;;16.10;99.90;;;;;;5030800;28;20475;-85
2021/09/04 05:53:44;;;;;;;58.38;31.60;;;16.10;99.90;;;;;;5032303;28;20037;-86
2021/09/04 05:56:10;;;;;;;58.53;31.90;;;16.10;99.90;;;;;;5031222;28;20075;-85
2021/09/04 05:58:36;;;;;;;57.70;33.13;;;16.10;99.90;;;;;;5031874;28;20029;-86
2021/09/04 06:01:02;;;;;;;57.33;30.98;;;16.10;99.90;;;;;;5049333;28;20025;-85
2021/09/04 06:03:27;;;;;;;55.65;29.30;;;16.00;99.90;;;;;;5048790;28;20025;-85
2021/09/04 06:05:56;;;;;;;44.33;25.48;;;16.10;99.90;;;;;;5035081;28;20062;-85
2021/09/04 06:08:24;;;;;;;49.10;28.58;;;16.10;99.90;;;;;;5034167;28;20113;-84
2021/09/04 06:10:51;;;;;;;51.35;28.08;;;16.10;99.90;;;;;;5031021;28;20422;-85
2021/09/04 06:13:17;;;;;;;52.60;28.58;;;16.10;99.90;;;;;;5030415;28;20102;-86
2021/09/04 06:15:43;;;;;;;50.50;27.63;;;16.00;99.90;;;;;;5047083;28;20029;-85
2021/09/04 06:18:08;;;;;;;51.70;28.30;;;16.00;99.90;;;;;;5031528;28;20152;-85
2021/09/04 06:20:34;;;;;;;49.05;27.98;;;16.00;99.90;;;;;;5031110;28;20378;-86
2021/09/04 06:23:00;;;;;;;51.28;28.02;;;16.00;99.90;;;;;;5046762;28;20030;-86
2021/09/04 06:25:25;;;;;;;50.42;28.25;;;16.00;99.90;;;;;;5030534;28;20021;-86
2021/09/04 06:27:51;;;;;;;51.10;27.38;;;16.00;99.90;;;;;;5030394;28;20485;-85
2021/09/04 06:30:17;;;;;;;52.90;28.08;;;16.00;99.90;;;;;;5031204;28;20036;-86
2021/09/04 06:32:42;;;;;;;49.20;27.00;;;16.00;99.90;;;;;;5048347;28;20101;-85
2021/09/04 06:35:09;;;;;;;50.78;26.90;;;15.90;99.90;;;;;;5034236;28;20021;-86
2021/09/04 06:37:34;;;;;;;48.45;26.70;;;15.90;99.90;;;;;;5034034;28;20536;-86
2021/09/04 06:40:00;;;;;;;53.15;28.17;;;15.90;99.90;;;;;;5033417;28;20025;-86
2021/09/04 06:42:25;;;;;;;45.40;26.13;;;15.90;99.90;;;;;;5050395;28;20032;-85
2021/09/04 06:44:51;;;;;;;46.75;25.48;;;15.90;99.90;;;;;;5035290;28;20018;-86
2021/09/04 06:47:17;;;;;;;47.78;25.80;;;15.80;99.90;;;;;;5050297;28;20513;-86
2021/09/04 06:49:42;;;;;;;47.50;26.20;;;15.90;99.90;;;;;;5032958;28;20065;-86
2021/09/04 06:52:08;;;;;;;51.03;27.52;;;15.90;99.90;;;;;;5034572;28;20018;-85
2021/09/04 06:54:33;;;;;;;47.80;25.88;;;15.90;99.90;;;;;;5035013;28;20037;-85
2021/09/04 06:57:00;;;;;;;55.90;28.08;;;15.90;99.90;;;;;;5034746;28;20036;-86
2021/09/04 06:59:26;;;;;;;52.15;26.65;;;15.90;99.90;;;;;;5034663;28;20155;-85
2021/09/04 07:01:52;;;;;;;48.15;25.90;;;15.90;99.90;;;;;;5049872;28;20284;-85
2021/09/04 07:04:17;;;;;;;51.38;27.38;;;15.90;99.90;;;;;;5049787;28;20033;-85
2021/09/04 07:06:43;;;;;;;51.40;26.90;;;15.90;99.90;;;;;;5033415;28;20029;-85
2021/09/04 07:09:09;;;;;;;47.90;25.52;;;15.90;99.90;;;;;;5049431;28;20106;-85
2021/09/04 07:11:34;;;;;;;46.42;25.13;;;15.90;99.90;;;;;;5034582;28;20064;-85
2021/09/04 07:14:00;;;;;;;46.20;25.08;;;15.90;99.90;;;;;;5049730;28;20466;-86
2021/09/04 07:16:26;;;;;;;46.22;24.40;;;15.90;99.90;;;;;;5033110;28;20030;-86
2021/09/04 07:18:52;;;;;;;45.10;23.98;;;15.90;99.90;;;;;;5034151;28;20029;-85
2021/09/04 07:21:17;;;;;;;42.60;24.10;;;15.90;99.90;;;;;;5034191;28;20030;-86
2021/09/04 07:23:43;;;;;;;41.83;22.63;;;15.90;99.90;;;;;;5033077;28;20079;-86
2021/09/04 07:26:09;;;;;;;41.03;23.45;;;15.90;99.90;;;;;;5032995;28;20026;-86
2021/09/04 07:28:34;;;;;;;47.30;25.35;;;15.90;99.90;;;;;;5034365;28;20029;-85
2021/09/04 07:31:00;;;;;;;43.25;23.85;;;15.90;99.90;;;;;;5032310;28;20084;-85
2021/09/04 07:33:27;;;;;;;42.72;22.15;;;15.90;99.90;;;;;;5032816;28;20478;-86
2021/09/04 07:35:52;;;;;;;36.33;19.20;;;15.90;99.90;;;;;;5033296;28;20502;-86
2021/09/04 07:38:19;;;;;;;38.75;21.75;;;15.90;99.90;;;;;;5049382;28;20037;-86
2021/09/04 07:40:45;;;;;;;38.03;21.45;;;15.90;99.90;;;;;;5032342;28;20036;-86
2021/09/04 07:43:11;;;;;;;38.67;20.38;;;16.00;99.90;;;;;;5032270;28;20029;-85
2021/09/04 07:45:37;;;;;;;37.92;19.98;;;16.00;99.90;;;;;;5033404;28;20386;-86
2021/09/04 07:48:04;;;;;;;39.00;20.45;;;16.00;99.90;;;;;;5033910;28;20164;-86
2021/09/04 07:50:30;;;;;;;38.20;20.55;;;16.00;99.90;;;;;;5048564;28;20116;-85
2021/09/04 07:52:55;;;;;;;39.10;21.88;;;16.00;99.90;;;;;;5032437;28;20129;-85
2021/09/04 07:55:21;;;;;;;39.58;20.88;;;16.00;99.90;;;;;;5032793;28;20033;-86
2021/09/04 07:57:47;;;;;;;37.50;20.30;;;16.00;99.90;;;;;;5032413;28;20518;-86
2021/09/04 08:00:13;;;;;;;39.90;21.67;;;16.10;99.90;;;;;;5033215;28;20065;-86
2021/09/04 08:02:39;;;;;;;38.20;21.35;;;16.00;99.90;;;;;;5048671;28;20472;-85
2021/09/04 08:05:05;;;;;;;42.13;22.52;;;16.10;99.90;;;;;;5032350;28;20072;-85
2021/09/04 08:07:31;;;;;;;42.17;22.20;;;16.00;99.90;;;;;;5049009;28;20030;-86
2021/09/04 08:09:57;;;;;;;37.15;20.75;;;16.10;99.90;;;;;;5032783;28;20398;-86
2021/09/04 08:12:22;;;;;;;42.28;20.60;;;16.00;99.90;;;;;;5032156;28;20038;-86
2021/09/04 08:14:48;;;;;;;37.13;20.38;;;16.10;99.90;;;;;;5048497;28;20478;-86
2021/09/04 08:17:14;;;;;;;35.60;19.92;;;16.10;99.90;;;;;;5032219;28;20033;-86
2021/09/04 08:19:40;;;;;;;37.75;20.95;;;16.20;99.90;;;;;;5048174;28;20121;-85
2021/09/04 08:22:05;;;;;;;36.55;19.83;;;16.20;99.90;;;;;;5033553;28;20040;-87
2021/09/04 08:24:32;;;;;;;39.30;21.77;;;16.20;99.90;;;;;;5032024;28;20029;-85
2021/09/04 08:26:58;;;;;;;39.58;20.73;;;16.20;99.90;;;;;;5033088;28;20029;-85
2021/09/04 08:29:24;;;;;;;40.05;20.83;;;16.20;99.90;;;;;;5032303;28;20111;-85
2021/09/04 08:31:49;;;;;;;39.88;22.17;;;16.20;99.90;;;;;;5033066;28;20108;-85
2021/09/04 08:34:15;;;;;;;41.35;21.45;;;16.30;99.90;;;;;;5031928;28;20506;-85
2021/09/04 08:36:41;;;;;;;42.30;22.33;;;16.20;99.90;;;;;;5031518;28;20120;-85
2021/09/04 08:39:07;;;;;;;40.03;22.50;;;16.20;99.90;;;;;;5031148;28;20148;-86
2021/09/04 08:41:36;;;;;;;45.72;24.60;;;16.20;99.90;;;;;;5032837;28;20033;-85
2021/09/04 08:44:02;;;;;;;46.15;23.90;;;16.30;99.90;;;;;;5032717;28;20394;-85
2021/09/04 08:46:32;;;;;;;42.30;22.48;;;16.20;99.90;;;;;;5048209;28;20026;-85
2021/09/04 08:49:00;;;;;;;42.78;22.48;;;16.30;99.90;;;;;;5032368;28;20583;-85
2021/09/04 08:51:26;;;;;;;48.38;23.45;;;16.40;99.90;;;;;;5032481;28;20100;-85
2021/09/04 08:53:51;;;;;;;45.95;23.30;;;16.40;99.90;;;;;;5032713;28;20539;-85
2021/09/04 08:56:18;;;;;;;48.20;24.23;;;16.50;99.90;;;;;;5032536;28;20091;-85
2021/09/04 08:58:43;;;;;;;45.13;22.98;;;16.40;99.90;;;;;;5047751;28;20051;-85
2021/09/04 09:01:24;;;;;;;42.75;21.88;;;16.40;99.90;;;;;;5030696;28;20021;-85
2021/09/04 09:03:51;;;;;;;45.95;23.67;;;16.50;99.90;;;;;;5031554;28;20024;-85
2021/09/04 09:06:27;;;;;;;47.83;25.48;;;16.50;99.90;;;;;;5047843;28;20037;-85
2021/09/04 09:08:53;;;;;;;44.38;23.08;;;16.60;99.90;;;;;;5030858;28;20033;-85
2021/09/04 09:11:20;;;;;;;50.35;26.30;;;16.60;99.90;;;;;;5047541;28;20017;-85
2021/09/04 09:13:47;;;;;;;48.03;24.90;;;16.60;99.90;;;;;;5032311;28;20021;-84
2021/09/04 09:16:18;;;;;;;50.92;27.00;;;16.60;99.90;;;;;;5032439;28;20061;-85
2021/09/04 09:19:02;;;;;;;46.83;24.98;;;16.60;99.90;;;;;;5032236;28;20037;-85
2021/09/04 09:21:32;;;;;;;50.75;25.75;;;16.60;99.90;;;;;;5031110;28;20116;-85
2021/09/04 09:24:16;;;;;;;48.13;26.25;;;16.70;99.90;;;;;;5030886;28;20025;-85
2021/09/04 09:26:52;;;;;;;51.33;26.27;;;16.70;99.90;;;;;;5047601;28;20475;-85
2021/09/04 09:29:20;;;;;;;48.78;26.65;;;16.70;99.90;;;;;;5030288;28;20021;-85
2021/09/04 09:31:46;;;;;;;50.10;27.17;;;16.80;99.90;;;;;;5047661;28;20099;-85
2021/09/04 09:34:13;;;;;;;52.75;26.75;;;16.80;99.90;;;;;;5031053;28;20264;-85
2021/09/04 09:36:49;;;;;;;50.40;27.30;;;16.80;99.90;;;;;;5032414;28;20382;-86
2021/09/04 09:39:15;;;;;;;48.97;26.08;;;16.90;99.90;;;;;;5030581;28;20030;-86
2021/09/04 09:41:51;;;;;;;52.05;27.40;;;16.80;99.90;;;;;;5032417;28;20018;-85
2021/09/04 09:44:19;;;;;;;49.05;27.17;;;16.90;99.90;;;;;;5047672;28;20464;-86
2021/09/04 09:47:07;;;;;;;55.17;28.92;;;16.90;99.90;;;;;;5030966;28;20548;-86
2021/09/04 09:49:40;;;;;;;48.05;26.73;;;17.00;99.90;;;;;;5032061;28;20029;-85
2021/09/04 09:52:08;;;;;;;54.60;28.63;;;17.00;99.90;;;;;;5031803;28;20032;-85
2021/09/04 09:54:35;;;;;;;64.47;34.42;;;17.00;99.90;;;;;;5040843;28;20025;-85
2021/09/04 09:57:03;;;;;;;61.03;32.80;;;17.10;99.90;;;;;;5032593;28;20033;-85
2021/09/04 09:59:30;;;;;;;62.65;32.65;;;17.10;99.90;;;;;;5032731;28;20029;-85
2021/09/04 10:01:58;;;;;;;69.15;35.33;;;17.20;99.90;;;;;;5034145;28;20021;-85
2021/09/04 10:04:28;;;;;;;64.57;34.30;;;17.20;99.90;;;;;;5034536;28;20478;-85
2021/09/04 10:06:55;;;;;;;71.05;35.47;;;17.20;99.90;;;;;;5031169;28;20494;-85
2021/09/04 10:09:22;;;;;;;75.93;37.80;;;17.20;99.90;;;;;;5035336;28;20025;-85
2021/09/04 10:11:49;;;;;;;77.00;38.63;;;17.20;99.90;;;;;;5034628;28;20417;-85
2021/09/04 10:14:14;;;;;;;71.68;35.92;;;17.30;99.90;;;;;;5035638;28;20029;-85
2021/09/04 10:16:42;;;;;;;69.40;35.85;;;17.20;99.90;;;;;;5035961;28;20079;-85
2021/09/04 10:19:08;;;;;;;70.05;34.97;;;17.30;99.90;;;;;;5034108;28;20120;-85
2021/09/04 10:21:38;;;;;;;65.70;33.22;;;17.30;99.90;;;;;;5034607;28;20386;-85
2021/09/04 10:24:07;;;;;;;68.68;34.88;;;17.30;99.90;;;;;;5034428;28;20029;-85
2021/09/04 10:26:39;;;;;;;69.22;35.40;;;17.40;99.90;;;;;;5034307;28;20021;-85
2021/09/04 10:29:16;;;;;;;67.22;34.55;;;17.40;99.90;;;;;;5035009;28;20083;-85
2021/09/04 10:31:56;;;;;;;72.82;37.17;;;17.50;99.90;;;;;;5034027;28;20048;-85
2021/09/04 10:34:27;;;;;;;74.10;37.55;;;17.50;99.90;;;;;;5035676;28;20048;-85
2021/09/04 10:37:24;;;;;;;82.57;40.83;;;17.50;99.90;;;;;;5034208;28;20100;-85
2021/09/04 10:39:50;;;;;;;69.82;38.45;;;17.50;99.90;;;;;;5030187;28;20025;-85
2021/09/04 10:42:25;;;;;;;74.05;39.47;;;17.60;99.90;;;;;;5035711;28;20022;-86
2021/09/04 10:44:58;;;;;;;76.88;39.92;;;17.60;99.90;;;;;;5035831;28;20080;-85
2021/09/04 10:47:24;;;;;;;84.10;41.22;;;17.60;99.90;;;;;;5035122;28;20359;-85
2021/09/04 10:49:56;;;;;;;79.35;40.25;;;17.70;99.90;;;;;;5035370;28;20070;-86
2021/09/04 10:53:11;;;;;;;83.00;41.72;;;17.60;99.90;;;;;;5061132;22;20025;-91
2021/09/04 10:55:40;;;;;;;81.22;40.70;;;17.70;99.90;;;;;;5027717;28;20132;-91
2021/09/04 10:58:10;;;;;;;81.15;41.35;;;17.70;99.90;;;;;;5053625;28;20078;-91
2021/09/04 11:00:40;;;;;;;95.65;48.25;;;17.70;99.90;;;;;;5053651;28;20029;-91
2021/09/04 11:03:08;;;;;;;87.40;44.42;;;17.80;99.90;;;;;;5050297;28;20040;-90
2021/09/04 11:05:55;;;;;;;83.68;43.78;;;17.80;99.90;;;;;;5034911;28;20050;-91
2021/09/04 11:08:20;;;;;;;81.97;42.75;;;17.80;99.90;;;;;;5033607;28;20025;-91
2021/09/04 11:11:06;;;;;;;72.57;39.53;;;17.80;99.90;;;;;;5033216;28;20032;-91
2021/09/04 11:13:38;;;;;;;75.68;40.03;;;17.90;99.90;;;;;;5033954;28;20026;-91
2021/09/04 11:16:26;;;;;;;78.35;41.40;;;18.00;99.90;;;;;;5033445;28;20223;-91
2021/09/04 11:18:53;;;;;;;74.05;40.83;;;18.10;99.90;;;;;;5031837;28;20091;-91
2021/09/04 11:21:19;;;;;;;78.88;42.05;;;18.10;99.90;;;;;;5033225;28;20393;-91
2021/09/04 11:23:45;;;;;;;72.82;40.92;;;18.20;99.90;;;;;;5033165;28;20025;-91
2021/09/04 11:26:11;;;;;;;79.45;43.33;;;18.20;99.90;;;;;;5033199;28;20021;-91
2021/09/04 11:28:37;;;;;;;77.47;43.13;;;18.30;99.90;;;;;;5034711;28;20540;-90
2021/09/04 11:31:04;;;;;;;74.43;42.72;;;18.30;99.90;;;;;;5033148;28;20076;-91
2021/09/04 11:33:30;;;;;;;77.03;41.80;;;18.30;99.90;;;;;;5033285;28;20057;-91
2021/09/04 11:35:55;;;;;;;74.60;41.00;;;18.30;99.90;;;;;;5033630;28;20060;-90
2021/09/04 11:38:25;;;;;;;70.95;39.72;;;18.20;99.90;;;;;;5033422;28;20116;-91
2021/09/04 11:40:52;;;;;;;73.05;40.80;;;18.30;99.90;;;;;;5034483;28;20070;-91
2021/09/04 11:43:23;;;;;;;74.78;41.05;;;18.30;99.90;;;;;;5033613;28;20113;-91
2021/09/04 11:46:03;;;;;;;68.90;37.45;;;18.20;99.90;;;;;;5034037;28;20033;-91
2021/09/04 11:48:29;;;;;;;63.17;36.85;;;18.30;99.90;;;;;;5035515;28;20032;-90
2021/09/04 11:51:08;;;;;;;66.18;36.40;;;18.40;99.90;;;;;;5033616;28;20098;-91
2021/09/04 11:54:00;;;;;;;73.15;38.85;;;18.30;99.90;;;;;;5033386;28;20444;-91
2021/09/04 11:56:30;;;;;;;71.35;38.42;;;18.40;99.90;;;;;;5032136;28;20060;-91
2021/09/04 11:59:10;;;;;;;75.85;39.78;;;18.40;99.90;;;;;;5032592;28;20057;-91
2021/09/04 12:01:36;;;;;;;78.30;42.67;;;18.40;99.90;;;;;;5033004;28;20021;-91
2021/09/04 12:04:14;;;;;;;83.47;44.70;;;18.40;99.90;;;;;;5033198;28;20079;-91
2021/09/04 12:06:49;;;;;;;87.63;44.10;;;18.50;99.90;;;;;;5032914;28;20034;-90
2021/09/04 12:09:18;;;;;;;77.43;41.33;;;18.50;99.90;;;;;;5032135;28;20053;-91
2021/09/04 12:11:44;;;;;;;85.22;42.88;;;18.60;99.90;;;;;;5032808;28;20060;-91
2021/09/04 12:14:10;;;;;;;77.32;41.00;;;18.50;99.90;;;;;;5032452;28;20068;-91
2021/09/04 12:16:43;;;;;;;80.20;41.53;;;18.60;99.90;;;;;;5033714;28;20033;-90
2021/09/04 12:19:41;;;;;;;72.22;38.97;;;18.60;99.90;;;;;;5032077;28;20029;-91
2021/09/04 12:22:11;;;;;;;72.07;37.40;;;18.60;99.90;;;;;;5019184;28;20032;-91
2021/09/04 12:24:37;;;;;;;69.30;36.88;;;18.60;99.90;;;;;;5032506;28;20417;-91
2021/09/04 12:27:11;;;;;;;67.82;35.65;;;18.60;99.90;;;;;;5032193;28;20032;-91
2021/09/04 12:29:39;;;;;;;63.00;35.53;;;18.50;99.90;;;;;;5031755;28;20453;-91